createdAt,value
2022-09-09T00:00:18.056Z,98827.21
2022-09-09T00:03:34.808Z,98822.22
2022-09-09T00:06:30.926Z,98817.30
2022-09-09T00:09:18.661Z,98816.16
2022-09-09T00:12:17.179Z,98815.64
2022-09-09T00:15:16.078Z,98820.02
2022-09-09T00:17:58.411Z,98823.84
2022-09-09T00:20:55.816Z,98823.32
2022-09-09T00:23:53.049Z,98829.52
2022-09-09T00:26:49.353Z,98834.84
2022-09-09T00:29:46.329Z,98836.55
2022-09-09T00:32:39.152Z,98837.95
2022-09-09T00:35:34.747Z,98835.48
2022-09-09T00:38:30.633Z,98841.74
2022-09-09T00:41:37.327Z,98841.97
2022-09-09T00:44:36.214Z,98833.27
2022-09-09T00:47:45.762Z,98835.06
2022-09-09T00:50:37.148Z,98831.65
2022-09-09T00:53:38.630Z,98828.81
2022-09-09T00:56:43.249Z,98833.46
2022-09-09T00:59:31.359Z,98832.88
2022-09-09T01:02:30.960Z,98827.23
2022-09-09T01:05:29.516Z,98831.95
2022-09-09T01:08:31.207Z,98832.52
2022-09-09T01:11:22.335Z,98833.06
2022-09-09T01:14:27.080Z,98836.06
2022-09-09T01:17:23.244Z,98838.54
2022-09-09T01:20:20.224Z,98839.14
2022-09-09T01:23:32.298Z,98841.05
2022-09-09T01:26:32.545Z,98842.72
2022-09-09T01:29:20.964Z,98844.56
2022-09-09T01:32:43.215Z,98840.38
2022-09-09T01:35:47.337Z,98842.21
2022-09-09T01:38:40.954Z,98844.67
2022-09-09T01:41:33.265Z,98843.65
2022-09-09T01:44:26.764Z,98844.02
2022-09-09T01:47:01.718Z,98847.66
2022-09-09T01:49:53.962Z,98852.39
2022-09-09T01:52:48.697Z,98853.70
2022-09-09T01:55:42.779Z,98852.23
2022-09-09T01:58:42.735Z,98852.89
2022-09-09T02:01:26.570Z,98857.23
2022-09-09T02:04:31.643Z,98854.27
2022-09-09T02:07:30.403Z,98852.01
2022-09-09T02:10:12.348Z,98852.91
2022-09-09T02:13:09.576Z,98851.91
2022-09-09T02:15:54.907Z,98851.94
2022-09-09T02:18:50.728Z,98848.66
2022-09-09T02:21:44.522Z,98847.33
2022-09-09T02:24:40.153Z,98846.19
2022-09-09T02:27:32.610Z,98843.71
2022-09-09T02:30:24.829Z,98844.36
2022-09-09T02:33:18.085Z,98845.85
2022-09-09T02:36:13.849Z,98840.02
2022-09-09T02:38:54.045Z,98843.58
2022-09-09T02:41:46.159Z,98849.50
2022-09-09T02:44:39.158Z,98851.67
2022-09-09T02:47:37.383Z,98848.18
2022-09-09T02:50:34.970Z,98847.61
2022-09-09T02:53:35.236Z,98850.27
2022-09-09T02:56:33.922Z,98852.66
2022-09-09T02:59:27.161Z,98855.84
2022-09-09T03:02:11.402Z,98852.38
2022-09-09T03:05:03.432Z,98853.75
2022-09-09T03:07:55.491Z,98854.38
2022-09-09T03:10:47.581Z,98858.52
2022-09-09T03:13:39.970Z,98864.42
2022-09-09T03:16:32.139Z,98865.11
2022-09-09T03:19:24.396Z,98864.38
2022-09-09T03:22:16.063Z,98863.85
2022-09-09T03:25:09.213Z,98857.24
2022-09-09T03:27:50.744Z,98856.17
2022-09-09T03:30:42.786Z,98857.02
2022-09-09T03:33:35.311Z,98860.88
2022-09-09T03:36:29.176Z,98859.14
2022-09-09T03:39:21.190Z,98864.95
2022-09-09T03:42:19.775Z,98868.88
2022-09-09T03:45:13.064Z,98865.11
2022-09-09T03:47:55.630Z,98860.58
2022-09-09T03:50:49.931Z,98862.23
2022-09-09T03:53:42.145Z,98865.55
2022-09-09T03:56:34.110Z,98863.69
2022-09-09T03:59:26.524Z,98864.26
2022-09-09T04:02:17.670Z,98863.54
2022-09-09T04:05:11.045Z,98862.14
2022-09-09T04:08:03.234Z,98861.75
2022-09-09T04:10:59.051Z,98861.67
2022-09-09T04:13:33.977Z,98862.72
2022-09-09T04:16:25.992Z,98858.15
2022-09-09T04:19:02.437Z,98863.41
2022-09-09T04:21:54.415Z,98864.02
2022-09-09T04:24:48.794Z,98865.27
2022-09-09T04:27:40.998Z,98864.86
2022-09-09T04:30:14.595Z,98865.17
2022-09-09T04:33:00.391Z,98860.37
2022-09-09T04:35:55.680Z,98861.89
2022-09-09T04:38:30.134Z,98860.42
2022-09-09T04:41:14.650Z,98865.20
2022-09-09T04:44:07.350Z,98863.39
2022-09-09T04:46:39.177Z,98864.98
2022-09-09T04:49:15.678Z,98867.54
2022-09-09T04:51:52.192Z,98870.13
2022-09-09T04:54:23.922Z,98873.26
2022-09-09T04:57:18.784Z,98877.38
2022-09-09T05:00:14.689Z,98881.84
2022-09-09T05:03:09.923Z,98888.88
2022-09-09T05:05:52.790Z,98888.19
2022-09-09T05:08:45.975Z,98892.21
2022-09-09T05:11:29.615Z,98893.93
2022-09-09T05:14:21.607Z,98901.05
2022-09-09T05:17:14.336Z,98901.30
2022-09-09T05:19:56.351Z,98903.79
2022-09-09T05:22:28.341Z,98903.00
2022-09-09T05:25:00.211Z,98903.08
2022-09-09T05:27:33.479Z,98904.83
2022-09-09T05:30:05.947Z,98905.86
2022-09-09T05:32:38.982Z,98903.91
2022-09-09T05:35:11.311Z,98903.27
2022-09-09T05:37:44.032Z,98904.80
2022-09-09T05:40:16.530Z,98904.83
2022-09-09T05:42:48.477Z,98907.45
2022-09-09T05:45:22.606Z,98910.09
2022-09-09T05:47:56.392Z,98913.48
2022-09-09T05:50:31.505Z,98911.77
2022-09-09T05:53:06.150Z,98915.27
2022-09-09T05:55:38.063Z,98915.84
2022-09-09T05:58:11.184Z,98912.95
2022-09-09T06:00:43.150Z,98910.26
2022-09-09T06:03:15.598Z,98909.85
2022-09-09T06:06:09.718Z,98914.52
2022-09-09T06:08:55.247Z,98918.61
2022-09-09T06:11:29.054Z,98923.05
2022-09-09T06:14:01.171Z,98923.22
2022-09-09T06:16:34.666Z,98926.27
2022-09-09T06:19:09.689Z,98927.96
2022-09-09T06:21:42.174Z,98928.27
2022-09-09T06:24:18.361Z,98928.25
2022-09-09T06:26:50.236Z,98927.09
2022-09-09T06:29:25.851Z,98933.80
2022-09-09T06:31:59.182Z,98937.13
2022-09-09T06:34:32.299Z,98938.50
2022-09-09T06:37:05.667Z,98941.87
2022-09-09T06:39:50.523Z,98942.13
2022-09-09T06:42:22.554Z,98941.29
2022-09-09T06:44:54.503Z,98943.16
2022-09-09T06:47:53.286Z,98942.42
2022-09-09T06:50:25.344Z,98949.86
2022-09-09T06:52:57.409Z,98955.23
2022-09-09T06:55:32.517Z,98956.77
2022-09-09T06:58:04.319Z,98958.68
2022-09-09T07:00:38.926Z,98960.38
2022-09-09T07:03:19.046Z,98964.55
2022-09-09T07:05:59.295Z,98969.89
2022-09-09T07:08:30.978Z,98968.52
2022-09-09T07:11:12.242Z,98972.67
2022-09-09T07:13:45.310Z,98977.06
2022-09-09T07:16:28.633Z,98979.89
2022-09-09T07:19:03.532Z,98981.17
2022-09-09T07:21:37.101Z,98985.66
2022-09-09T07:24:13.817Z,98986.18
2022-09-09T07:26:49.334Z,98987.58
2022-09-09T07:29:21.701Z,98991.77
2022-09-09T07:31:56.735Z,98997.00
2022-09-09T07:34:32.106Z,98997.48
2022-09-09T07:37:04.161Z,98994.56
2022-09-09T07:39:39.285Z,98999.55
2022-09-09T07:42:12.286Z,99000.52
2022-09-09T07:44:47.307Z,99001.66
2022-09-09T07:47:21.214Z,99002.50
2022-09-09T07:49:54.756Z,99006.24
2022-09-09T07:52:30.771Z,99005.77
2022-09-09T07:55:05.618Z,99006.40
2022-09-09T07:57:38.598Z,99003.64
2022-09-09T08:00:13.842Z,99004.82
2022-09-09T08:02:47.464Z,99008.30
2022-09-09T08:05:19.565Z,99006.58
2022-09-09T08:07:51.403Z,99007.63
2022-09-09T08:10:24.085Z,99011.45
2022-09-09T08:13:17.382Z,99011.98
2022-09-09T08:15:52.236Z,99014.13
2022-09-09T08:18:24.979Z,99017.48
2022-09-09T08:20:57.349Z,99019.28
2022-09-09T08:23:29.985Z,99017.39
2022-09-09T08:26:10.304Z,99020.68
2022-09-09T08:28:43.408Z,99023.81
2022-09-09T08:31:18.479Z,99021.15
2022-09-09T08:33:53.363Z,99028.73
2022-09-09T08:36:27.768Z,99030.28
2022-09-09T08:39:00.397Z,99029.20
2022-09-09T08:41:59.430Z,99031.78
2022-09-09T08:44:52.233Z,99031.30
2022-09-09T08:47:34.197Z,99027.33
2022-09-09T08:50:22.655Z,99030.65
2022-09-09T08:53:06.903Z,99022.63
2022-09-09T08:55:47.335Z,99021.45
2022-09-09T08:58:22.362Z,99018.67
2022-09-09T09:01:12.119Z,99016.00
2022-09-09T09:04:14.698Z,99017.98
2022-09-09T09:06:57.097Z,99022.59
2022-09-09T09:09:42.490Z,99022.33
2022-09-09T09:12:20.527Z,99025.25
2022-09-09T09:14:56.565Z,99026.63
2022-09-09T09:17:32.424Z,99018.95
2022-09-09T09:20:08.352Z,99022.52
2022-09-09T09:22:51.790Z,99030.46
2022-09-09T09:25:26.033Z,99028.47
2022-09-09T09:28:02.794Z,99028.36
2022-09-09T09:30:41.163Z,99028.70
2022-09-09T09:33:21.227Z,99031.30
2022-09-09T09:35:54.667Z,99034.30
2022-09-09T09:41:46.706Z,99031.86
2022-09-09T09:44:31.836Z,99029.21
2022-09-09T09:47:17.613Z,99025.52
2022-09-09T09:49:59.683Z,99028.02
2022-09-09T09:52:59.837Z,99030.25
2022-09-09T09:55:34.631Z,99028.41
2022-09-09T09:58:09.261Z,99032.52
2022-09-09T10:01:01.981Z,99036.27
2022-09-09T10:03:40.249Z,99039.27
2022-09-09T10:06:12.246Z,99041.84
2022-09-09T10:08:53.980Z,99042.05
2022-09-09T10:11:50.504Z,99040.35
2022-09-09T10:14:34.285Z,99043.77
2022-09-09T10:17:32.983Z,99032.59
2022-09-09T10:20:34.403Z,99031.02
2022-09-09T10:23:20.192Z,99028.13
2022-09-09T10:26:30.331Z,99023.84
2022-09-09T10:29:41.393Z,99016.04
2022-09-09T10:32:34.028Z,99019.39
2022-09-09T10:35:14.609Z,99021.30
2022-09-09T10:38:18.189Z,99023.77
2022-09-09T10:41:13.338Z,99023.23
2022-09-09T10:44:24.882Z,99022.45
2022-09-09T10:47:29.370Z,99019.17
2022-09-09T10:50:20.550Z,99026.67
2022-09-09T10:53:10.925Z,99027.73
2022-09-09T10:55:50.316Z,99024.61
2022-09-09T10:58:27.980Z,99025.52
2022-09-09T11:01:25.054Z,99026.27
2022-09-09T11:04:22.623Z,99026.30
2022-09-09T11:06:58.159Z,99028.80
2022-09-09T11:09:34.979Z,99036.52
2022-09-09T11:12:29.286Z,99041.15
2022-09-09T11:15:06.986Z,99040.42
2022-09-09T11:17:44.763Z,99042.30
2022-09-09T11:20:37.865Z,99047.34
2022-09-09T11:23:41.846Z,99050.58
2022-09-09T11:26:40.477Z,99050.90
2022-09-09T11:30:07.050Z,99052.09
2022-09-09T11:33:04.528Z,99055.95
2022-09-09T11:35:48.413Z,99055.86
2022-09-09T11:38:47.356Z,99059.64
2022-09-09T11:41:22.036Z,99062.42
2022-09-09T11:44:22.281Z,99061.68
2022-09-09T11:47:03.118Z,99061.40
2022-09-09T11:49:45.865Z,99058.27
2022-09-09T11:52:26.879Z,99063.77
2022-09-09T11:55:00.302Z,99064.04
2022-09-09T11:57:38.161Z,99061.89
2022-09-09T12:00:34.909Z,99060.27
2022-09-09T12:03:07.654Z,99061.48
2022-09-09T12:05:52.488Z,99056.95
2022-09-09T12:08:30.729Z,99056.77
2022-09-09T12:11:04.193Z,99054.71
2022-09-09T12:13:37.598Z,99051.35
2022-09-09T12:16:38.407Z,99045.29
2022-09-09T12:19:23.242Z,99044.08
2022-09-09T12:22:06.733Z,99037.23
2022-09-09T12:25:10.906Z,99040.74
2022-09-09T12:28:11.568Z,99037.63
2022-09-09T12:30:52.117Z,99037.73
2022-09-09T12:33:46.414Z,99035.14
2022-09-09T12:36:24.303Z,99038.60
2022-09-09T12:38:57.988Z,99038.61
2022-09-09T12:41:31.062Z,99033.23
2022-09-09T12:44:23.802Z,99033.05
2022-09-09T12:46:58.208Z,99034.51
2022-09-09T12:49:35.967Z,99028.25
2022-09-09T12:52:15.313Z,99022.70
2022-09-09T12:54:49.608Z,99016.79
2022-09-09T12:57:43.875Z,99012.67
2022-09-09T13:00:21.630Z,99010.39
2022-09-09T13:02:56.369Z,99014.21
2022-09-09T13:05:30.921Z,99017.96
2022-09-09T13:08:08.520Z,99017.51
2022-09-09T13:11:04.334Z,99018.13
2022-09-09T13:13:55.139Z,99019.41
2022-09-09T13:16:33.112Z,99024.68
2022-09-09T13:19:16.182Z,99026.89
2022-09-09T13:21:48.250Z,99027.11
2022-09-09T13:24:34.725Z,99029.79
2022-09-09T13:27:23.000Z,99035.85
2022-09-09T13:29:57.720Z,99032.01
2022-09-09T13:32:32.573Z,99030.13
2022-09-09T13:35:05.453Z,99029.73
2022-09-09T13:37:39.130Z,99029.38
2022-09-09T13:40:22.695Z,99033.77
2022-09-09T13:42:59.002Z,99032.08
2022-09-09T13:45:31.282Z,99029.98
2022-09-09T13:48:13.078Z,99026.07
2022-09-09T13:50:58.224Z,99025.05
2022-09-09T13:53:31.565Z,99019.77
2022-09-09T13:56:03.774Z,99011.90
2022-09-09T13:58:36.098Z,99008.48
2022-09-09T14:01:08.052Z,99012.83
2022-09-09T14:03:39.884Z,99014.21
2022-09-09T14:06:12.431Z,99015.11
2022-09-09T14:08:44.584Z,99014.01
2022-09-09T14:11:16.760Z,99015.48
2022-09-09T14:13:51.072Z,99012.19
2022-09-09T14:16:23.229Z,99005.85
2022-09-09T14:18:58.675Z,99002.27
2022-09-09T14:21:33.712Z,99002.56
2022-09-09T14:24:06.127Z,98996.86
2022-09-09T14:26:38.358Z,98993.60
2022-09-09T14:29:12.645Z,98995.99
2022-09-09T14:31:44.549Z,99002.13
2022-09-09T14:34:16.638Z,98999.70
2022-09-09T14:36:48.553Z,98997.95
2022-09-09T14:39:20.409Z,98993.94
2022-09-09T14:41:55.092Z,98995.80
2022-09-09T14:44:26.899Z,98993.51
2022-09-09T14:46:59.638Z,98988.66
2022-09-09T14:49:34.162Z,98988.91
2022-09-09T14:52:10.495Z,98986.83
2022-09-09T14:54:42.581Z,98986.79
2022-09-09T14:57:14.337Z,98985.87
2022-09-09T14:59:46.325Z,98990.02
2022-09-09T15:02:18.288Z,98989.42
2022-09-09T15:04:53.785Z,98989.33
2022-09-09T15:07:25.593Z,98988.35
2022-09-09T15:09:57.674Z,98990.64
2022-09-09T15:12:30.126Z,98997.93
2022-09-09T15:15:02.179Z,99001.73
2022-09-09T15:17:34.182Z,99006.31
2022-09-09T15:20:07.213Z,99007.55
2022-09-09T15:22:39.072Z,99009.45
2022-09-09T15:25:11.755Z,99010.72
2022-09-09T15:27:46.098Z,99018.77
2022-09-09T15:30:21.202Z,99019.80
2022-09-09T15:32:56.215Z,99023.98
2022-09-09T15:35:28.327Z,99021.73
2022-09-09T15:38:04.125Z,99012.58
2022-09-09T15:40:36.065Z,99013.55
2022-09-09T15:43:10.580Z,99014.56
2022-09-09T15:45:42.981Z,99016.25
2022-09-09T15:48:17.445Z,99012.95
2022-09-09T15:51:19.506Z,99015.73
2022-09-09T15:54:01.624Z,99017.05
2022-09-09T15:56:33.952Z,99011.13
2022-09-09T15:59:17.154Z,99012.97
2022-09-09T16:01:52.616Z,99019.71
2022-09-09T16:04:26.139Z,99019.21
2022-09-09T16:07:00.744Z,99022.05
2022-09-09T16:09:36.590Z,99024.63
2022-09-09T16:12:10.851Z,99027.36
2022-09-09T16:14:42.813Z,99031.02
2022-09-09T16:17:15.315Z,99027.77
2022-09-09T16:19:49.923Z,99029.00
2022-09-09T16:22:22.856Z,99030.52
2022-09-09T16:24:54.787Z,99031.12
2022-09-09T16:27:26.767Z,99036.15
2022-09-09T16:29:58.491Z,99044.00
2022-09-09T16:32:30.946Z,99046.23
2022-09-09T16:35:03.691Z,99050.44
2022-09-09T16:37:35.992Z,99052.52
2022-09-09T16:40:10.622Z,99052.45
2022-09-09T16:42:43.093Z,99055.32
2022-09-09T16:45:15.491Z,99060.85
2022-09-09T16:47:47.511Z,99064.08
2022-09-09T16:50:19.404Z,99065.16
2022-09-09T16:52:51.157Z,99072.55
2022-09-09T16:55:23.472Z,99073.47
2022-09-09T16:57:55.170Z,99068.98
2022-09-09T17:00:28.158Z,99068.52
2022-09-09T17:02:59.949Z,99066.76
2022-09-09T17:05:33.721Z,99066.34
2022-09-09T17:08:06.537Z,99072.42
2022-09-09T17:10:44.461Z,99070.75
2022-09-09T17:13:16.207Z,99069.41
2022-09-09T17:15:48.187Z,99067.17
2022-09-09T17:18:29.335Z,99072.67
2022-09-09T17:21:15.047Z,99071.77
2022-09-09T17:23:50.693Z,99076.37
2022-09-09T17:26:24.063Z,99077.80
2022-09-09T17:28:59.367Z,99078.39
2022-09-09T17:31:33.696Z,99080.70
2022-09-09T17:34:06.099Z,99083.68
2022-09-09T17:36:39.496Z,99086.92
2022-09-09T17:39:11.401Z,99089.58
2022-09-09T17:41:43.534Z,99088.41
2022-09-09T17:44:18.048Z,99089.77
2022-09-09T17:46:51.072Z,99090.02
2022-09-09T17:49:25.614Z,99091.91
2022-09-09T17:51:57.635Z,99091.41
2022-09-09T17:54:29.417Z,99096.55
2022-09-09T17:57:03.453Z,99100.15
2022-09-09T17:59:35.333Z,99102.48
2022-09-09T18:02:08.195Z,99102.42
2022-09-09T18:04:40.249Z,99107.29
2022-09-09T18:07:11.948Z,99110.02
2022-09-09T18:09:44.000Z,99114.69
2022-09-09T18:12:16.610Z,99121.96
2022-09-09T18:15:14.368Z,99127.62
2022-09-09T18:18:06.119Z,99133.86
2022-09-09T18:20:37.938Z,99138.02
2022-09-09T18:23:09.785Z,99139.94
2022-09-09T18:25:42.552Z,99140.48
2022-09-09T18:28:14.503Z,99144.19
2022-09-09T18:30:46.224Z,99144.64
2022-09-09T18:33:41.221Z,99144.68
2022-09-09T18:36:26.665Z,99144.82
2022-09-09T18:39:10.743Z,99145.41
2022-09-09T18:41:44.792Z,99143.66
2022-09-09T18:44:22.846Z,99143.27
2022-09-09T18:46:57.386Z,99141.13
2022-09-09T18:49:50.871Z,99140.55
2022-09-09T18:52:23.028Z,99144.22
2022-09-09T18:54:57.924Z,99146.17
2022-09-09T18:57:50.817Z,99144.74
2022-09-09T19:00:25.738Z,99144.47
2022-09-09T19:03:07.686Z,99144.67
2022-09-09T19:05:40.914Z,99143.28
2022-09-09T19:08:13.037Z,99142.79
2022-09-09T19:11:09.170Z,99144.33
2022-09-09T19:14:01.760Z,99131.46
2022-09-09T19:16:48.741Z,99125.73
2022-09-09T19:19:35.663Z,99129.17
2022-09-09T19:22:11.736Z,99132.95
2022-09-09T19:25:04.619Z,99137.76
2022-09-09T19:27:38.691Z,99137.20
2022-09-09T19:30:14.870Z,99143.23
2022-09-09T19:33:08.267Z,99132.86
2022-09-09T19:36:06.644Z,99129.17
2022-09-09T19:39:00.212Z,99134.01
2022-09-09T19:41:44.776Z,99131.60
2022-09-09T19:44:36.752Z,99129.95
2022-09-09T19:47:08.640Z,99131.45
2022-09-09T19:49:43.871Z,99140.20
2022-09-09T19:52:39.145Z,99144.00
2022-09-09T19:55:32.257Z,99142.91
2022-09-09T19:58:04.356Z,99144.33
2022-09-09T20:00:56.436Z,99147.00
2022-09-09T20:03:49.974Z,99151.67
2022-09-09T20:06:46.226Z,99149.48
2022-09-09T20:09:38.296Z,99154.25
2022-09-09T20:12:30.271Z,99156.55
2022-09-09T20:15:24.511Z,99151.95
2022-09-09T20:17:56.302Z,99149.94
2022-09-09T20:20:48.619Z,99150.10
2022-09-09T20:23:40.793Z,99154.26
2022-09-09T20:26:28.979Z,99156.52
2022-09-09T20:29:21.750Z,99152.16
2022-09-09T20:32:14.032Z,99149.26
2022-09-09T20:34:49.124Z,99150.95
2022-09-09T20:37:42.861Z,99146.01
2022-09-09T20:40:44.565Z,99142.95
2022-09-09T20:43:36.570Z,99146.20
2022-09-09T20:46:08.673Z,99143.98
2022-09-09T20:48:56.750Z,99140.58
2022-09-09T20:51:52.438Z,99135.48
2022-09-09T20:54:44.612Z,99138.63
2022-09-09T20:57:36.827Z,99144.73
2022-09-09T21:00:30.138Z,99151.73
2022-09-09T21:03:22.497Z,99148.85
2022-09-09T21:05:54.344Z,99145.89
2022-09-09T21:08:37.672Z,99145.55
2022-09-09T21:11:29.954Z,99144.80
2022-09-09T21:14:13.258Z,99148.70
2022-09-09T21:17:05.404Z,99149.28
2022-09-09T21:19:47.508Z,99149.27
2022-09-09T21:22:32.177Z,99150.41
2022-09-09T21:25:24.306Z,99150.92
2022-09-09T21:28:17.811Z,99145.64
2022-09-09T21:31:14.530Z,99140.57
2022-09-09T21:34:07.347Z,99136.70
2022-09-09T21:36:59.465Z,99134.68
2022-09-09T21:39:43.203Z,99139.39
2022-09-09T21:42:25.268Z,99140.98
2022-09-09T21:45:19.881Z,99143.97
2022-09-09T21:48:15.280Z,99145.27
2022-09-09T21:51:09.751Z,99140.43
2022-09-09T21:54:01.694Z,99137.06
2022-09-09T21:56:43.535Z,99133.73
2022-09-09T21:59:27.344Z,99130.97
2022-09-09T22:02:11.081Z,99138.50
2022-09-09T22:05:03.091Z,99140.08
2022-09-09T22:07:55.217Z,99141.48
2022-09-09T22:10:48.518Z,99140.95
2022-09-09T22:13:30.476Z,99137.17
2022-09-09T22:16:24.212Z,99134.37
2022-09-09T22:19:18.684Z,99136.00
2022-09-09T22:22:14.890Z,99140.63
2022-09-09T22:25:08.206Z,99140.10
2022-09-09T22:28:00.371Z,99140.08
2022-09-09T22:30:52.400Z,99139.65
2022-09-09T22:33:27.355Z,99137.56
2022-09-09T22:36:20.441Z,99139.05
2022-09-09T22:39:12.530Z,99141.30
2022-09-09T22:41:58.009Z,99141.84
2022-09-09T22:44:50.024Z,99140.64
2022-09-09T22:47:31.781Z,99136.27
2022-09-09T22:50:27.824Z,99131.02
2022-09-09T22:53:13.233Z,99127.85
2022-09-09T22:56:11.176Z,99124.23
2022-09-09T22:59:03.186Z,99113.78
2022-09-09T23:01:55.189Z,99110.75
2022-09-09T23:04:39.311Z,99105.17
2022-09-09T23:07:31.271Z,99103.98
2022-09-09T23:10:23.737Z,99098.91
2022-09-09T23:12:58.849Z,99098.91
2022-09-09T23:15:51.878Z,99096.77
2022-09-09T23:18:30.236Z,99090.85
2022-09-09T23:21:26.367Z,99088.09
2022-09-09T23:24:19.268Z,99086.95
2022-09-09T23:26:51.029Z,99085.33
2022-09-09T23:29:43.015Z,99089.75
2022-09-09T23:32:35.277Z,99088.67
2022-09-09T23:35:27.658Z,99084.25
2022-09-09T23:38:19.702Z,99086.21
2022-09-09T23:41:13.935Z,99079.46
2022-09-09T23:44:07.441Z,99080.04
2022-09-09T23:46:59.392Z,99075.87
2022-09-09T23:49:44.978Z,99070.00
2022-09-09T23:52:37.449Z,99063.60
2022-09-09T23:55:30.630Z,99062.88
2022-09-09T23:58:22.596Z,99061.85
